sensor_id;sensor_type;location;lat;lon;timestamp;P1;durP1;ratioP1;P2;durP2;ratioP2
79367;SDS011;68834;53.152;17.962;2023-04-03T00:00:59;14.40;;;3.60;;
79367;SDS011;68834;53.152;17.962;2023-04-03T00:03:27;9.70;;;2.90;;
79367;SDS011;68834;53.152;17.962;2023-04-03T00:05:53;5.60;;;2.10;;
79367;SDS011;68834;53.152;17.962;2023-04-03T00:08:21;8.80;;;3.20;;
79367;SDS011;68834;53.152;17.962;2023-04-03T00:10:48;9.90;;;2.70;;
79367;SDS011;68834;53.152;17.962;2023-04-03T00:13:15;8.60;;;3.30;;
79367;SDS011;68834;53.152;17.962;2023-04-03T00:15:42;9.30;;;3.20;;
79367;SDS011;68834;53.152;17.962;2023-04-03T00:18:09;15.20;;;3.30;;
79367;SDS011;68834;53.152;17.962;2023-04-03T00:20:35;10.40;;;3.20;;
79367;SDS011;68834;53.152;17.962;2023-04-03T00:23:03;9.80;;;3.40;;
79367;SDS011;68834;53.152;17.962;2023-04-03T00:25:29;10.20;;;3.60;;
79367;SDS011;68834;53.152;17.962;2023-04-03T00:27:56;9.10;;;2.90;;
79367;SDS011;68834;53.152;17.962;2023-04-03T00:30:23;6.10;;;2.60;;
79367;SDS011;68834;53.152;17.962;2023-04-03T00:32:50;6.90;;;2.50;;
79367;SDS011;68834;53.152;17.962;2023-04-03T00:35:18;4.20;;;2.00;;
79367;SDS011;68834;53.152;17.962;2023-04-03T00:37:47;9.60;;;2.40;;
79367;SDS011;68834;53.152;17.962;2023-04-03T00:40:17;3.90;;;1.50;;
79367;SDS011;68834;53.152;17.962;2023-04-03T00:42:45;4.70;;;2.20;;
79367;SDS011;68834;53.152;17.962;2023-04-03T00:45:24;9.90;;;2.80;;
79367;SDS011;68834;53.152;17.962;2023-04-03T00:47:57;6.90;;;2.10;;
79367;SDS011;68834;53.152;17.962;2023-04-03T00:50:26;5.10;;;2.40;;
79367;SDS011;68834;53.152;17.962;2023-04-03T00:52:55;5.20;;;2.30;;
79367;SDS011;68834;53.152;17.962;2023-04-03T00:55:23;8.50;;;2.80;;
79367;SDS011;68834;53.152;17.962;2023-04-03T00:57:51;15.70;;;3.00;;
79367;SDS011;68834;53.152;17.962;2023-04-03T01:00:20;7.20;;;2.20;;
79367;SDS011;68834;53.152;17.962;2023-04-03T01:02:49;12.00;;;2.80;;
79367;SDS011;68834;53.152;17.962;2023-04-03T01:07:45;4.30;;;2.00;;
79367;SDS011;68834;53.152;17.962;2023-04-03T01:10:14;8.20;;;2.30;;
79367;SDS011;68834;53.152;17.962;2023-04-03T01:15:15;9.50;;;2.70;;
79367;SDS011;68834;53.152;17.962;2023-04-03T01:17:48;5.90;;;2.90;;
79367;SDS011;68834;53.152;17.962;2023-04-03T01:25:40;7.90;;;2.60;;
79367;SDS011;68834;53.152;17.962;2023-04-03T01:28:11;5.80;;;2.00;;
79367;SDS011;68834;53.152;17.962;2023-04-03T01:30:46;4.50;;;2.30;;
79367;SDS011;68834;53.152;17.962;2023-04-03T01:33:14;12.60;;;2.20;;
79367;SDS011;68834;53.152;17.962;2023-04-03T01:35:41;9.10;;;2.70;;
79367;SDS011;68834;53.152;17.962;2023-04-03T01:38:08;6.80;;;2.80;;
79367;SDS011;68834;53.152;17.962;2023-04-03T01:40:35;7.70;;;1.90;;
79367;SDS011;68834;53.152;17.962;2023-04-03T01:43:03;7.40;;;2.30;;
79367;SDS011;68834;53.152;17.962;2023-04-03T01:45:29;7.90;;;2.50;;
79367;SDS011;68834;53.152;17.962;2023-04-03T01:47:56;5.90;;;2.50;;
79367;SDS011;68834;53.152;17.962;2023-04-03T01:50:24;9.80;;;2.70;;
79367;SDS011;68834;53.152;17.962;2023-04-03T01:52:50;9.10;;;3.10;;
79367;SDS011;68834;53.152;17.962;2023-04-03T01:55:18;7.50;;;2.20;;
79367;SDS011;68834;53.152;17.962;2023-04-03T01:57:45;7.40;;;1.90;;
79367;SDS011;68834;53.152;17.962;2023-04-03T02:00:12;6.30;;;2.10;;
79367;SDS011;68834;53.152;17.962;2023-04-03T02:02:39;12.30;;;2.70;;
79367;SDS011;68834;53.152;17.962;2023-04-03T02:05:06;7.80;;;2.70;;
79367;SDS011;68834;53.152;17.962;2023-04-03T02:07:33;9.60;;;2.60;;
79367;SDS011;68834;53.152;17.962;2023-04-03T02:10:00;5.30;;;1.90;;
79367;SDS011;68834;53.152;17.962;2023-04-03T02:12:27;4.70;;;2.20;;
79367;SDS011;68834;53.152;17.962;2023-04-03T02:14:53;6.10;;;1.90;;
79367;SDS011;68834;53.152;17.962;2023-04-03T02:17:20;10.30;;;2.00;;
79367;SDS011;68834;53.152;17.962;2023-04-03T02:19:47;6.00;;;2.00;;
79367;SDS011;68834;53.152;17.962;2023-04-03T02:22:14;5.70;;;1.70;;
79367;SDS011;68834;53.152;17.962;2023-04-03T02:24:41;3.60;;;1.90;;
79367;SDS011;68834;53.152;17.962;2023-04-03T02:27:08;5.60;;;1.90;;
79367;SDS011;68834;53.152;17.962;2023-04-03T02:29:34;6.90;;;1.70;;
79367;SDS011;68834;53.152;17.962;2023-04-03T02:32:01;2.90;;;1.50;;
79367;SDS011;68834;53.152;17.962;2023-04-03T02:34:28;5.50;;;2.00;;
79367;SDS011;68834;53.152;17.962;2023-04-03T02:36:56;2.80;;;1.30;;
79367;SDS011;68834;53.152;17.962;2023-04-03T02:39:22;4.30;;;1.80;;
79367;SDS011;68834;53.152;17.962;2023-04-03T02:41:49;8.20;;;2.40;;
79367;SDS011;68834;53.152;17.962;2023-04-03T02:44:20;6.60;;;2.40;;
79367;SDS011;68834;53.152;17.962;2023-04-03T02:46:46;8.90;;;2.40;;
79367;SDS011;68834;53.152;17.962;2023-04-03T02:49:13;7.30;;;2.10;;
79367;SDS011;68834;53.152;17.962;2023-04-03T02:51:40;7.50;;;2.00;;
79367;SDS011;68834;53.152;17.962;2023-04-03T02:54:06;14.30;;;2.80;;
79367;SDS011;68834;53.152;17.962;2023-04-03T02:56:34;5.20;;;2.70;;
79367;SDS011;68834;53.152;17.962;2023-04-03T02:59:01;6.50;;;2.50;;
79367;SDS011;68834;53.152;17.962;2023-04-03T03:01:28;4.80;;;2.10;;
79367;SDS011;68834;53.152;17.962;2023-04-03T03:04:00;12.60;;;2.60;;
79367;SDS011;68834;53.152;17.962;2023-04-03T03:06:28;8.50;;;2.20;;
79367;SDS011;68834;53.152;17.962;2023-04-03T03:08:54;5.40;;;2.90;;
79367;SDS011;68834;53.152;17.962;2023-04-03T03:11:21;14.70;;;2.70;;
79367;SDS011;68834;53.152;17.962;2023-04-03T03:13:48;6.70;;;2.00;;
79367;SDS011;68834;53.152;17.962;2023-04-03T03:16:14;8.80;;;2.70;;
79367;SDS011;68834;53.152;17.962;2023-04-03T03:18:41;18.80;;;7.10;;
79367;SDS011;68834;53.152;17.962;2023-04-03T03:21:08;21.60;;;13.80;;
79367;SDS011;68834;53.152;17.962;2023-04-03T03:23:36;17.80;;;12.70;;
79367;SDS011;68834;53.152;17.962;2023-04-03T03:26:04;12.60;;;8.10;;
79367;SDS011;68834;53.152;17.962;2023-04-03T03:28:34;18.70;;;8.60;;
79367;SDS011;68834;53.152;17.962;2023-04-03T03:31:03;10.70;;;4.90;;
79367;SDS011;68834;53.152;17.962;2023-04-03T03:33:30;11.80;;;4.70;;
79367;SDS011;68834;53.152;17.962;2023-04-03T03:35:56;11.80;;;4.90;;
79367;SDS011;68834;53.152;17.962;2023-04-03T03:38:23;12.90;;;3.90;;
79367;SDS011;68834;53.152;17.962;2023-04-03T03:40:51;13.70;;;3.70;;
79367;SDS011;68834;53.152;17.962;2023-04-03T03:43:19;12.20;;;3.10;;
79367;SDS011;68834;53.152;17.962;2023-04-03T03:45:53;8.90;;;3.10;;
79367;SDS011;68834;53.152;17.962;2023-04-03T03:48:22;11.10;;;3.80;;
79367;SDS011;68834;53.152;17.962;2023-04-03T03:50:49;11.40;;;4.30;;
79367;SDS011;68834;53.152;17.962;2023-04-03T03:53:17;15.50;;;4.80;;
79367;SDS011;68834;53.152;17.962;2023-04-03T03:55:44;18.50;;;6.20;;
79367;SDS011;68834;53.152;17.962;2023-04-03T03:58:11;15.90;;;4.50;;
79367;SDS011;68834;53.152;17.962;2023-04-03T04:00:38;14.10;;;4.50;;
79367;SDS011;68834;53.152;17.962;2023-04-03T04:03:05;13.30;;;3.50;;
79367;SDS011;68834;53.152;17.962;2023-04-03T04:05:31;7.50;;;3.30;;
79367;SDS011;68834;53.152;17.962;2023-04-03T04:07:59;10.70;;;4.30;;
79367;SDS011;68834;53.152;17.962;2023-04-03T04:10:26;18.90;;;7.00;;
79367;SDS011;68834;53.152;17.962;2023-04-03T04:12:53;25.10;;;9.50;;
79367;SDS011;68834;53.152;17.962;2023-04-03T04:15:23;25.00;;;9.20;;
79367;SDS011;68834;53.152;17.962;2023-04-03T04:17:52;27.00;;;9.70;;
79367;SDS011;68834;53.152;17.962;2023-04-03T04:20:19;20.50;;;7.60;;
79367;SDS011;68834;53.152;17.962;2023-04-03T04:22:46;14.50;;;6.70;;
79367;SDS011;68834;53.152;17.962;2023-04-03T04:25:13;32.20;;;10.20;;
79367;SDS011;68834;53.152;17.962;2023-04-03T04:27:40;23.50;;;7.40;;
79367;SDS011;68834;53.152;17.962;2023-04-03T04:30:07;9.40;;;4.80;;
79367;SDS011;68834;53.152;17.962;2023-04-03T04:32:35;8.90;;;4.20;;
79367;SDS011;68834;53.152;17.962;2023-04-03T04:35:02;10.20;;;4.90;;
79367;SDS011;68834;53.152;17.962;2023-04-03T04:37:31;12.60;;;5.20;;
79367;SDS011;68834;53.152;17.962;2023-04-03T04:39:58;10.90;;;4.70;;
79367;SDS011;68834;53.152;17.962;2023-04-03T04:42:26;11.10;;;4.40;;
79367;SDS011;68834;53.152;17.962;2023-04-03T04:44:52;10.40;;;4.40;;
79367;SDS011;68834;53.152;17.962;2023-04-03T04:47:19;8.90;;;3.80;;
79367;SDS011;68834;53.152;17.962;2023-04-03T04:49:47;10.20;;;4.50;;
79367;SDS011;68834;53.152;17.962;2023-04-03T04:52:14;9.00;;;3.40;;
79367;SDS011;68834;53.152;17.962;2023-04-03T04:54:41;10.10;;;3.70;;
79367;SDS011;68834;53.152;17.962;2023-04-03T04:57:09;7.40;;;2.90;;
79367;SDS011;68834;53.152;17.962;2023-04-03T04:59:37;13.50;;;3.90;;
79367;SDS011;68834;53.152;17.962;2023-04-03T05:02:06;6.80;;;3.10;;
79367;SDS011;68834;53.152;17.962;2023-04-03T05:04:33;5.70;;;3.20;;
79367;SDS011;68834;53.152;17.962;2023-04-03T05:07:05;11.80;;;3.10;;
79367;SDS011;68834;53.152;17.962;2023-04-03T05:12:01;7.70;;;3.60;;
79367;SDS011;68834;53.152;17.962;2023-04-03T05:14:30;7.50;;;2.90;;
79367;SDS011;68834;53.152;17.962;2023-04-03T05:17:00;10.60;;;3.50;;
79367;SDS011;68834;53.152;17.962;2023-04-03T05:19:28;15.70;;;5.40;;
79367;SDS011;68834;53.152;17.962;2023-04-03T05:21:55;8.10;;;4.80;;
79367;SDS011;68834;53.152;17.962;2023-04-03T05:24:23;5.60;;;2.90;;
79367;SDS011;68834;53.152;17.962;2023-04-03T05:26:49;9.40;;;2.60;;
79367;SDS011;68834;53.152;17.962;2023-04-03T05:29:16;5.80;;;2.60;;
79367;SDS011;68834;53.152;17.962;2023-04-03T05:31:43;5.50;;;2.60;;
79367;SDS011;68834;53.152;17.962;2023-04-03T05:34:10;10.40;;;3.60;;
79367;SDS011;68834;53.152;17.962;2023-04-03T05:36:38;6.50;;;3.20;;
79367;SDS011;68834;53.152;17.962;2023-04-03T05:39:06;10.10;;;3.10;;
79367;SDS011;68834;53.152;17.962;2023-04-03T05:41:33;4.40;;;2.70;;
79367;SDS011;68834;53.152;17.962;2023-04-03T05:44:00;6.30;;;2.40;;
79367;SDS011;68834;53.152;17.962;2023-04-03T05:46:27;5.60;;;2.40;;
79367;SDS011;68834;53.152;17.962;2023-04-03T05:48:55;4.00;;;2.10;;
79367;SDS011;68834;53.152;17.962;2023-04-03T05:51:25;5.60;;;2.30;;
79367;SDS011;68834;53.152;17.962;2023-04-03T05:54:05;4.00;;;1.80;;
79367;SDS011;68834;53.152;17.962;2023-04-03T05:56:39;8.20;;;2.70;;
79367;SDS011;68834;53.152;17.962;2023-04-03T05:59:05;4.30;;;1.70;;
79367;SDS011;68834;53.152;17.962;2023-04-03T06:06:42;2.80;;;1.30;;
79367;SDS011;68834;53.152;17.962;2023-04-03T06:09:11;5.00;;;1.60;;
79367;SDS011;68834;53.152;17.962;2023-04-03T06:11:38;4.60;;;2.50;;
79367;SDS011;68834;53.152;17.962;2023-04-03T06:14:05;3.30;;;1.40;;
79367;SDS011;68834;53.152;17.962;2023-04-03T06:16:32;2.80;;;1.20;;
79367;SDS011;68834;53.152;17.962;2023-04-03T06:18:59;4.60;;;2.00;;
79367;SDS011;68834;53.152;17.962;2023-04-03T06:21:27;7.70;;;1.80;;
79367;SDS011;68834;53.152;17.962;2023-04-03T06:23:54;6.40;;;2.10;;
79367;SDS011;68834;53.152;17.962;2023-04-03T06:26:21;4.30;;;1.90;;
79367;SDS011;68834;53.152;17.962;2023-04-03T06:28:48;4.10;;;1.90;;
79367;SDS011;68834;53.152;17.962;2023-04-03T06:31:15;4.90;;;1.90;;
79367;SDS011;68834;53.152;17.962;2023-04-03T06:36:10;3.10;;;1.80;;
79367;SDS011;68834;53.152;17.962;2023-04-03T06:38:38;5.90;;;3.50;;
79367;SDS011;68834;53.152;17.962;2023-04-03T06:41:05;4.40;;;1.80;;
79367;SDS011;68834;53.152;17.962;2023-04-03T06:43:31;8.60;;;3.90;;
79367;SDS011;68834;53.152;17.962;2023-04-03T06:45:58;9.60;;;5.50;;
79367;SDS011;68834;53.152;17.962;2023-04-03T06:48:25;3.80;;;1.90;;
79367;SDS011;68834;53.152;17.962;2023-04-03T06:50:51;5.60;;;3.30;;
79367;SDS011;68834;53.152;17.962;2023-04-03T06:53:19;5.30;;;2.70;;
79367;SDS011;68834;53.152;17.962;2023-04-03T06:55:46;5.80;;;2.00;;
79367;SDS011;68834;53.152;17.962;2023-04-03T06:58:13;12.10;;;2.20;;
79367;SDS011;68834;53.152;17.962;2023-04-03T07:00:41;10.70;;;4.70;;
79367;SDS011;68834;53.152;17.962;2023-04-03T07:03:08;6.90;;;3.10;;
79367;SDS011;68834;53.152;17.962;2023-04-03T07:05:34;8.30;;;4.40;;
79367;SDS011;68834;53.152;17.962;2023-04-03T07:08:01;7.30;;;3.70;;
79367;SDS011;68834;53.152;17.962;2023-04-03T07:10:28;11.60;;;5.00;;
79367;SDS011;68834;53.152;17.962;2023-04-03T07:12:55;5.70;;;3.00;;
79367;SDS011;68834;53.152;17.962;2023-04-03T07:15:21;6.50;;;3.20;;
79367;SDS011;68834;53.152;17.962;2023-04-03T07:17:48;13.20;;;6.40;;
79367;SDS011;68834;53.152;17.962;2023-04-03T07:20:14;3.60;;;2.50;;
79367;SDS011;68834;53.152;17.962;2023-04-03T07:22:42;3.80;;;1.80;;
79367;SDS011;68834;53.152;17.962;2023-04-03T07:25:08;3.30;;;1.70;;
79367;SDS011;68834;53.152;17.962;2023-04-03T07:27:35;4.80;;;1.60;;
79367;SDS011;68834;53.152;17.962;2023-04-03T07:30:02;3.10;;;1.50;;
79367;SDS011;68834;53.152;17.962;2023-04-03T07:32:29;3.20;;;1.50;;
79367;SDS011;68834;53.152;17.962;2023-04-03T07:34:55;3.20;;;2.00;;
79367;SDS011;68834;53.152;17.962;2023-04-03T07:37:22;2.80;;;1.20;;
79367;SDS011;68834;53.152;17.962;2023-04-03T07:39:49;3.50;;;1.70;;
79367;SDS011;68834;53.152;17.962;2023-04-03T07:42:15;6.20;;;1.80;;
79367;SDS011;68834;53.152;17.962;2023-04-03T07:44:42;5.90;;;2.00;;
79367;SDS011;68834;53.152;17.962;2023-04-03T07:47:09;3.00;;;1.50;;
79367;SDS011;68834;53.152;17.962;2023-04-03T07:49:36;3.60;;;1.20;;
79367;SDS011;68834;53.152;17.962;2023-04-03T07:52:06;3.80;;;1.80;;
79367;SDS011;68834;53.152;17.962;2023-04-03T07:54:34;3.40;;;1.50;;
79367;SDS011;68834;53.152;17.962;2023-04-03T07:57:01;1.70;;;1.20;;
79367;SDS011;68834;53.152;17.962;2023-04-03T07:59:28;3.30;;;1.60;;
79367;SDS011;68834;53.152;17.962;2023-04-03T08:01:55;4.90;;;1.30;;
79367;SDS011;68834;53.152;17.962;2023-04-03T08:04:22;3.40;;;1.70;;
79367;SDS011;68834;53.152;17.962;2023-04-03T08:06:48;4.50;;;1.60;;
79367;SDS011;68834;53.152;17.962;2023-04-03T08:09:15;3.00;;;1.70;;
79367;SDS011;68834;53.152;17.962;2023-04-03T08:11:43;2.70;;;1.50;;
79367;SDS011;68834;53.152;17.962;2023-04-03T08:14:10;4.30;;;1.80;;
79367;SDS011;68834;53.152;17.962;2023-04-03T08:16:43;3.80;;;1.80;;
79367;SDS011;68834;53.152;17.962;2023-04-03T08:19:11;2.30;;;1.40;;
79367;SDS011;68834;53.152;17.962;2023-04-03T08:21:40;6.20;;;1.90;;
79367;SDS011;68834;53.152;17.962;2023-04-03T08:24:08;4.30;;;1.50;;
79367;SDS011;68834;53.152;17.962;2023-04-03T08:26:35;3.40;;;1.50;;
79367;SDS011;68834;53.152;17.962;2023-04-03T08:29:02;2.90;;;1.30;;
79367;SDS011;68834;53.152;17.962;2023-04-03T08:31:29;3.00;;;1.80;;
79367;SDS011;68834;53.152;17.962;2023-04-03T08:33:56;2.80;;;1.50;;
79367;SDS011;68834;53.152;17.962;2023-04-03T08:36:25;4.10;;;2.40;;
79367;SDS011;68834;53.152;17.962;2023-04-03T08:38:55;4.30;;;1.70;;
79367;SDS011;68834;53.152;17.962;2023-04-03T08:41:29;3.80;;;1.70;;
79367;SDS011;68834;53.152;17.962;2023-04-03T08:44:14;4.40;;;2.10;;
79367;SDS011;68834;53.152;17.962;2023-04-03T08:49:39;5.90;;;2.40;;
79367;SDS011;68834;53.152;17.962;2023-04-03T08:52:22;2.40;;;1.50;;
79367;SDS011;68834;53.152;17.962;2023-04-03T08:54:58;5.70;;;1.70;;
79367;SDS011;68834;53.152;17.962;2023-04-03T08:57:49;4.60;;;2.20;;
79367;SDS011;68834;53.152;17.962;2023-04-03T09:00:18;3.10;;;1.50;;
79367;SDS011;68834;53.152;17.962;2023-04-03T09:02:48;4.50;;;2.60;;
79367;SDS011;68834;53.152;17.962;2023-04-03T09:10:39;4.20;;;2.40;;
79367;SDS011;68834;53.152;17.962;2023-04-03T09:15:53;6.40;;;2.80;;
79367;SDS011;68834;53.152;17.962;2023-04-03T09:18:23;4.80;;;2.10;;
79367;SDS011;68834;53.152;17.962;2023-04-03T09:23:55;3.10;;;1.80;;
79367;SDS011;68834;53.152;17.962;2023-04-03T09:26:36;2.90;;;1.90;;
79367;SDS011;68834;53.152;17.962;2023-04-03T09:29:06;3.60;;;2.00;;
79367;SDS011;68834;53.152;17.962;2023-04-03T09:31:38;4.00;;;2.00;;
79367;SDS011;68834;53.152;17.962;2023-04-03T09:36:49;3.40;;;1.60;;
79367;SDS011;68834;53.152;17.962;2023-04-03T09:39:21;3.50;;;1.70;;
79367;SDS011;68834;53.152;17.962;2023-04-03T09:41:56;4.50;;;2.10;;
79367;SDS011;68834;53.152;17.962;2023-04-03T09:44:24;4.40;;;1.80;;
79367;SDS011;68834;53.152;17.962;2023-04-03T09:46:53;7.40;;;1.80;;
79367;SDS011;68834;53.152;17.962;2023-04-03T09:49:19;3.00;;;1.70;;
79367;SDS011;68834;53.152;17.962;2023-04-03T09:51:46;4.30;;;1.90;;
79367;SDS011;68834;53.152;17.962;2023-04-03T09:57:07;4.80;;;1.40;;
79367;SDS011;68834;53.152;17.962;2023-04-03T09:59:41;4.60;;;1.70;;
79367;SDS011;68834;53.152;17.962;2023-04-03T10:04:50;3.90;;;1.70;;
79367;SDS011;68834;53.152;17.962;2023-04-03T10:07:30;1.80;;;1.30;;
79367;SDS011;68834;53.152;17.962;2023-04-03T10:10:02;2.40;;;1.40;;
79367;SDS011;68834;53.152;17.962;2023-04-03T10:12:44;9.00;;;4.10;;
79367;SDS011;68834;53.152;17.962;2023-04-03T10:15:14;14.20;;;7.00;;
79367;SDS011;68834;53.152;17.962;2023-04-03T10:17:57;3.80;;;2.40;;
79367;SDS011;68834;53.152;17.962;2023-04-03T10:20:37;2.90;;;1.80;;
79367;SDS011;68834;53.152;17.962;2023-04-03T10:23:21;4.90;;;1.70;;
79367;SDS011;68834;53.152;17.962;2023-04-03T10:32:01;2.60;;;1.40;;
79367;SDS011;68834;53.152;17.962;2023-04-03T10:34:43;2.30;;;1.30;;
79367;SDS011;68834;53.152;17.962;2023-04-03T10:37:27;4.20;;;1.70;;
79367;SDS011;68834;53.152;17.962;2023-04-03T10:40:15;4.60;;;1.50;;
79367;SDS011;68834;53.152;17.962;2023-04-03T10:43:02;2.60;;;1.60;;
79367;SDS011;68834;53.152;17.962;2023-04-03T10:45:59;8.70;;;4.80;;
79367;SDS011;68834;53.152;17.962;2023-04-03T10:54:10;2.20;;;1.50;;
79367;SDS011;68834;53.152;17.962;2023-04-03T10:56:40;5.80;;;2.00;;
79367;SDS011;68834;53.152;17.962;2023-04-03T11:04:36;3.50;;;1.70;;
79367;SDS011;68834;53.152;17.962;2023-04-03T11:07:25;3.00;;;1.50;;
79367;SDS011;68834;53.152;17.962;2023-04-03T11:09:55;2.70;;;1.20;;
79367;SDS011;68834;53.152;17.962;2023-04-03T11:12:47;4.30;;;1.60;;
79367;SDS011;68834;53.152;17.962;2023-04-03T11:15:19;5.30;;;1.90;;
79367;SDS011;68834;53.152;17.962;2023-04-03T11:17:50;3.90;;;2.00;;
79367;SDS011;68834;53.152;17.962;2023-04-03T11:20:31;2.10;;;1.20;;
79367;SDS011;68834;53.152;17.962;2023-04-03T11:23:01;3.20;;;2.00;;
79367;SDS011;68834;53.152;17.962;2023-04-03T11:25:32;2.70;;;1.50;;
79367;SDS011;68834;53.152;17.962;2023-04-03T11:28:04;4.30;;;1.40;;
79367;SDS011;68834;53.152;17.962;2023-04-03T11:36:06;3.80;;;1.50;;
79367;SDS011;68834;53.152;17.962;2023-04-03T11:38:37;3.90;;;1.60;;
79367;SDS011;68834;53.152;17.962;2023-04-03T11:41:10;4.00;;;1.70;;
79367;SDS011;68834;53.152;17.962;2023-04-03T11:43:40;2.40;;;1.60;;
79367;SDS011;68834;53.152;17.962;2023-04-03T11:46:09;2.60;;;1.50;;
79367;SDS011;68834;53.152;17.962;2023-04-03T11:48:43;4.00;;;1.80;;
79367;SDS011;68834;53.152;17.962;2023-04-03T11:53:46;3.60;;;1.40;;
79367;SDS011;68834;53.152;17.962;2023-04-03T12:01:47;8.10;;;1.90;;
79367;SDS011;68834;53.152;17.962;2023-04-03T12:04:15;3.40;;;1.80;;
79367;SDS011;68834;53.152;17.962;2023-04-03T12:09:31;3.50;;;1.40;;
79367;SDS011;68834;53.152;17.962;2023-04-03T12:12:29;3.90;;;1.40;;
79367;SDS011;68834;53.152;17.962;2023-04-03T12:17:48;4.70;;;1.80;;
79367;SDS011;68834;53.152;17.962;2023-04-03T12:23:28;3.80;;;1.70;;
79367;SDS011;68834;53.152;17.962;2023-04-03T12:28:48;2.50;;;1.50;;
79367;SDS011;68834;53.152;17.962;2023-04-03T12:31:17;2.20;;;1.50;;
79367;SDS011;68834;53.152;17.962;2023-04-03T12:33:57;3.60;;;1.60;;
79367;SDS011;68834;53.152;17.962;2023-04-03T12:36:38;3.80;;;1.50;;
79367;SDS011;68834;53.152;17.962;2023-04-03T12:39:24;2.10;;;1.00;;
79367;SDS011;68834;53.152;17.962;2023-04-03T12:42:11;2.60;;;1.40;;
79367;SDS011;68834;53.152;17.962;2023-04-03T12:47:24;8.50;;;2.20;;
79367;SDS011;68834;53.152;17.962;2023-04-03T12:49:54;2.70;;;1.50;;
79367;SDS011;68834;53.152;17.962;2023-04-03T12:52:34;2.50;;;1.50;;
79367;SDS011;68834;53.152;17.962;2023-04-03T12:55:07;4.20;;;1.70;;
79367;SDS011;68834;53.152;17.962;2023-04-03T12:57:41;9.20;;;2.10;;
79367;SDS011;68834;53.152;17.962;2023-04-03T13:03:00;5.10;;;1.90;;
79367;SDS011;68834;53.152;17.962;2023-04-03T13:05:29;4.00;;;1.80;;
79367;SDS011;68834;53.152;17.962;2023-04-03T13:08:02;2.80;;;1.20;;
79367;SDS011;68834;53.152;17.962;2023-04-03T13:10:31;9.40;;;2.10;;
79367;SDS011;68834;53.152;17.962;2023-04-03T13:15:42;7.40;;;1.80;;
79367;SDS011;68834;53.152;17.962;2023-04-03T13:18:48;3.70;;;1.40;;
79367;SDS011;68834;53.152;17.962;2023-04-03T13:21:13;3.70;;;1.60;;
79367;SDS011;68834;53.152;17.962;2023-04-03T13:23:44;3.10;;;1.50;;
79367;SDS011;68834;53.152;17.962;2023-04-03T13:26:18;3.60;;;1.10;;
79367;SDS011;68834;53.152;17.962;2023-04-03T13:28:48;2.80;;;1.60;;
79367;SDS011;68834;53.152;17.962;2023-04-03T13:31:18;2.80;;;1.50;;
79367;SDS011;68834;53.152;17.962;2023-04-03T13:36:30;3.20;;;1.40;;
79367;SDS011;68834;53.152;17.962;2023-04-03T13:39:07;4.10;;;1.40;;
79367;SDS011;68834;53.152;17.962;2023-04-03T13:41:48;2.50;;;1.30;;
79367;SDS011;68834;53.152;17.962;2023-04-03T13:46:57;6.30;;;1.60;;
79367;SDS011;68834;53.152;17.962;2023-04-03T13:49:36;4.10;;;2.30;;
79367;SDS011;68834;53.152;17.962;2023-04-03T13:54:46;3.70;;;1.60;;
79367;SDS011;68834;53.152;17.962;2023-04-03T13:57:18;4.40;;;1.60;;
79367;SDS011;68834;53.152;17.962;2023-04-03T13:59:44;3.40;;;1.40;;
79367;SDS011;68834;53.152;17.962;2023-04-03T14:07:14;6.20;;;3.40;;
79367;SDS011;68834;53.152;17.962;2023-04-03T14:09:43;16.70;;;7.40;;
79367;SDS011;68834;53.152;17.962;2023-04-03T14:12:18;12.80;;;6.50;;
79367;SDS011;68834;53.152;17.962;2023-04-03T14:14:53;12.60;;;3.10;;
79367;SDS011;68834;53.152;17.962;2023-04-03T14:17:23;13.10;;;5.30;;
79367;SDS011;68834;53.152;17.962;2023-04-03T14:19:53;4.30;;;2.30;;
79367;SDS011;68834;53.152;17.962;2023-04-03T14:22:23;14.10;;;4.90;;
79367;SDS011;68834;53.152;17.962;2023-04-03T14:24:53;11.90;;;6.50;;
79367;SDS011;68834;53.152;17.962;2023-04-03T14:27:21;7.80;;;4.30;;
79367;SDS011;68834;53.152;17.962;2023-04-03T14:29:50;12.70;;;7.20;;
79367;SDS011;68834;53.152;17.962;2023-04-03T14:32:19;21.00;;;9.40;;
79367;SDS011;68834;53.152;17.962;2023-04-03T14:34:48;10.00;;;3.70;;
79367;SDS011;68834;53.152;17.962;2023-04-03T14:37:17;59.00;;;24.50;;
79367;SDS011;68834;53.152;17.962;2023-04-03T14:39:47;28.40;;;11.90;;
79367;SDS011;68834;53.152;17.962;2023-04-03T14:42:16;60.60;;;24.10;;
79367;SDS011;68834;53.152;17.962;2023-04-03T14:44:45;45.30;;;16.50;;
79367;SDS011;68834;53.152;17.962;2023-04-03T14:47:13;109.80;;;41.10;;
79367;SDS011;68834;53.152;17.962;2023-04-03T14:49:42;106.60;;;37.80;;
79367;SDS011;68834;53.152;17.962;2023-04-03T14:52:20;46.40;;;18.20;;
79367;SDS011;68834;53.152;17.962;2023-04-03T14:54:50;25.60;;;11.70;;
79367;SDS011;68834;53.152;17.962;2023-04-03T14:57:17;8.40;;;4.40;;
79367;SDS011;68834;53.152;17.962;2023-04-03T14:59:45;59.10;;;23.40;;
79367;SDS011;68834;53.152;17.962;2023-04-03T15:02:24;34.70;;;13.90;;
79367;SDS011;68834;53.152;17.962;2023-04-03T15:04:56;33.50;;;13.50;;
79367;SDS011;68834;53.152;17.962;2023-04-03T15:07:25;4.60;;;1.90;;
79367;SDS011;68834;53.152;17.962;2023-04-03T15:09:54;2.90;;;2.10;;
79367;SDS011;68834;53.152;17.962;2023-04-03T15:12:23;4.20;;;2.00;;
79367;SDS011;68834;53.152;17.962;2023-04-03T15:14:50;4.20;;;2.10;;
79367;SDS011;68834;53.152;17.962;2023-04-03T15:17:17;4.10;;;1.70;;
79367;SDS011;68834;53.152;17.962;2023-04-03T15:19:48;4.10;;;1.90;;
79367;SDS011;68834;53.152;17.962;2023-04-03T15:22:15;4.80;;;2.40;;
79367;SDS011;68834;53.152;17.962;2023-04-03T15:24:43;3.60;;;1.80;;
79367;SDS011;68834;53.152;17.962;2023-04-03T15:27:10;4.10;;;2.30;;
79367;SDS011;68834;53.152;17.962;2023-04-03T15:29:39;6.00;;;2.10;;
79367;SDS011;68834;53.152;17.962;2023-04-03T15:32:08;5.80;;;2.10;;
79367;SDS011;68834;53.152;17.962;2023-04-03T15:34:35;12.40;;;5.40;;
79367;SDS011;68834;53.152;17.962;2023-04-03T15:37:02;34.90;;;14.50;;
79367;SDS011;68834;53.152;17.962;2023-04-03T15:39:29;4.90;;;2.80;;
79367;SDS011;68834;53.152;17.962;2023-04-03T15:41:55;3.60;;;1.70;;
79367;SDS011;68834;53.152;17.962;2023-04-03T15:44:25;1.60;;;1.30;;
79367;SDS011;68834;53.152;17.962;2023-04-03T15:46:52;2.20;;;1.50;;
79367;SDS011;68834;53.152;17.962;2023-04-03T15:49:19;6.90;;;1.80;;
79367;SDS011;68834;53.152;17.962;2023-04-03T15:51:47;8.60;;;2.10;;
79367;SDS011;68834;53.152;17.962;2023-04-03T15:54:15;3.00;;;1.80;;
79367;SDS011;68834;53.152;17.962;2023-04-03T15:56:42;6.90;;;3.40;;
79367;SDS011;68834;53.152;17.962;2023-04-03T15:59:08;19.00;;;9.00;;
79367;SDS011;68834;53.152;17.962;2023-04-03T16:01:36;13.00;;;5.30;;
79367;SDS011;68834;53.152;17.962;2023-04-03T16:04:05;19.60;;;11.50;;
79367;SDS011;68834;53.152;17.962;2023-04-03T16:06:34;18.90;;;10.20;;
79367;SDS011;68834;53.152;17.962;2023-04-03T16:09:01;14.30;;;8.00;;
79367;SDS011;68834;53.152;17.962;2023-04-03T16:11:28;7.10;;;4.30;;
79367;SDS011;68834;53.152;17.962;2023-04-03T16:13:56;10.10;;;5.10;;
79367;SDS011;68834;53.152;17.962;2023-04-03T16:16:23;10.40;;;4.20;;
79367;SDS011;68834;53.152;17.962;2023-04-03T16:18:50;9.30;;;3.50;;
79367;SDS011;68834;53.152;17.962;2023-04-03T16:21:17;8.90;;;4.70;;
79367;SDS011;68834;53.152;17.962;2023-04-03T16:23:44;9.70;;;4.30;;
79367;SDS011;68834;53.152;17.962;2023-04-03T16:26:11;14.50;;;4.90;;
79367;SDS011;68834;53.152;17.962;2023-04-03T16:28:38;6.80;;;3.60;;
79367;SDS011;68834;53.152;17.962;2023-04-03T16:31:05;6.80;;;3.10;;